Ora Direzione Vento Velocita' Vento Media Vento Raffica Max. Temperatura Wind Chill Pioggia Pressione
15:12:36.0314 °(NW)5.85 Kts5.41 Kts16.25 Kts17.3 °C29.77 °C0.0 mm1022.6 Hpa
14:51:43.0338 °(NNW)3.9 Kts3.68 Kts16.25 Kts18.7 °C29.0 °C0.0 mm1020.9 Hpa
14:32:03.0357 °(N)7.41 Kts9.23 Kts16.25 Kts17.3 °C31.92 °C0.0 mm1021.6 Hpa
14:11:34.0269 °(W)7.93 Kts4.85 Kts13.39 Kts17.8 °C33.79 °C0.0 mm1022.8 Hpa
13:51:52.0350 °(N)7.28 Kts9.75 Kts13.0 Kts17.7 °C32.75 °C0.0 mm1022.4 Hpa
13:32:27.0346 °(NNW)6.24 Kts7.54 Kts13.0 Kts17.3 °C30.34 °C0.0 mm1022.4 Hpa
13:12:01.0289 °(WNW)6.37 Kts4.72 Kts13.0 Kts17.6 °C31.21 °C0.0 mm1020.3 Hpa
12:51:38.0296 °(WNW)5.46 Kts3.98 Kts10.14 Kts18.0 °C30.53 °C0.0 mm1023.1 Hpa
12:32:18.0312 °(NW)8.97 Kts8.19 Kts10.14 Kts17.2 °C33.8 °C0.0 mm1023.1 Hpa
12:11:55.0262 °(W)4.16 Kts5.24 Kts8.97 Kts18.2 °C28.85 °C0.0 mm1024.3 Hpa
11:52:05.0267 °(W)6.76 Kts4.16 Kts7.28 Kts17.7 °C31.88 °C0.0 mm1023.4 Hpa
11:31:46.0220 °(SW)2.47 Kts1.99 Kts5.85 Kts18.2 °C25.37 °C0.0 mm1023.8 Hpa
11:11:30.0109 °(ESE)2.47 Kts2.21 Kts4.94 Kts18.5 °C25.81 °C0.0 mm1025.0 Hpa
10:52:19.0109 °(ESE)1.04 Kts1.73 Kts4.94 Kts17.6 °C21.11 °C0.0 mm1022.9 Hpa
10:31:55.0109 °(ESE)1.69 Kts1.69 Kts4.94 Kts17.2 °C22.28 °C0.0 mm1021.7 Hpa
10:11:46.0109 °(ESE)1.95 Kts1.3 Kts4.94 Kts17.2 °C22.82 °C0.0 mm1022.1 Hpa
09:52:26.0109 °(ESE)0.52 Kts0.73 Kts4.94 Kts18.0 °C20.0 °C0.0 mm1023.7 Hpa
09:32:08.0109 °(ESE)3.77 Kts3.59 Kts4.94 Kts15.3 °C23.12 °C0.0 mm1023.3 Hpa
09:11:54.091 °(E)1.43 Kts1.77 Kts4.68 Kts17.1 °C21.48 °C0.0 mm1021.6 Hpa
08:51:34.091 °(E)0.0 Kts0.0 Kts4.68 Kts17.8 °C24.18 °C0.0 mm1022.9 Hpa